createdAt,value
2023-05-04T00:00:10.138Z,41.10
2023-05-04T00:02:39.015Z,40.90
2023-05-04T00:05:06.694Z,41.00
2023-05-04T00:07:33.543Z,41.00
2023-05-04T00:10:01.270Z,41.30
2023-05-04T00:12:28.607Z,41.30
2023-05-04T00:14:55.540Z,41.10
2023-05-04T00:17:22.879Z,41.20
2023-05-04T00:19:50.306Z,41.30
2023-05-04T00:22:17.089Z,41.40
2023-05-04T00:24:46.672Z,41.60
2023-05-04T00:27:13.493Z,41.80
2023-05-04T00:29:40.425Z,41.60
2023-05-04T00:32:07.354Z,41.70
2023-05-04T00:34:34.263Z,41.70
2023-05-04T00:37:01.567Z,42.00
2023-05-04T00:39:28.550Z,42.00
2023-05-04T00:41:55.981Z,41.90
2023-05-04T00:44:24.095Z,42.10
2023-05-04T00:46:55.120Z,42.10
2023-05-04T00:49:22.603Z,42.20
2023-05-04T00:51:51.431Z,42.40
2023-05-04T00:54:19.164Z,42.40
2023-05-04T00:56:47.566Z,42.40
2023-05-04T00:59:14.829Z,42.40
2023-05-04T01:01:42.234Z,42.40
2023-05-04T01:04:09.955Z,42.60
2023-05-04T01:06:58.314Z,42.80
2023-05-04T01:09:45.034Z,42.60
2023-05-04T01:12:26.013Z,42.70
2023-05-04T01:14:54.645Z,42.60
2023-05-04T01:17:22.250Z,42.80
2023-05-04T01:22:17.950Z,42.80
2023-05-04T01:27:27.405Z,43.10
2023-05-04T01:30:37.349Z,43.00
2023-05-04T01:33:04.738Z,43.00
2023-05-04T01:35:31.808Z,43.10
2023-05-04T01:37:59.744Z,43.10
2023-05-04T01:40:26.783Z,43.30
2023-05-04T01:42:55.102Z,43.40
2023-05-04T01:45:22.445Z,43.50
2023-05-04T01:47:49.995Z,43.60
2023-05-04T01:50:16.906Z,43.60
2023-05-04T01:52:43.698Z,43.80
2023-05-04T01:55:11.215Z,43.90
2023-05-04T01:57:38.060Z,44.00
2023-05-04T02:00:05.403Z,43.90
2023-05-04T02:02:42.707Z,43.90
2023-05-04T02:05:10.529Z,43.90
2023-05-04T02:07:37.827Z,44.10
2023-05-04T02:10:05.385Z,44.00
2023-05-04T02:12:32.430Z,44.00
2023-05-04T02:14:59.227Z,44.00
2023-05-04T02:17:26.106Z,44.10
2023-05-04T02:24:47.347Z,44.00
2023-05-04T02:27:14.121Z,43.90
2023-05-04T02:29:41.254Z,43.90
2023-05-04T02:32:08.035Z,44.00
2023-05-04T02:34:35.462Z,44.00
2023-05-04T02:46:53.202Z,44.60
2023-05-04T02:49:20.052Z,44.60
2023-05-04T02:51:47.410Z,44.70
2023-05-04T02:56:41.598Z,44.80
2023-05-04T03:01:35.712Z,45.00
2023-05-04T03:21:14.682Z,45.90
2023-05-04T03:38:28.941Z,46.40
2023-05-04T03:40:56.419Z,46.50
2023-05-04T03:43:23.581Z,46.60
2023-05-04T03:45:50.538Z,46.70
2023-05-04T03:48:17.603Z,46.70
2023-05-04T03:53:11.657Z,47.00
2023-05-04T03:58:06.860Z,47.20
2023-05-04T04:08:05.600Z,47.60
2023-05-04T04:10:32.458Z,47.60
2023-05-04T04:20:21.263Z,47.90
2023-05-04T04:25:15.331Z,48.10
2023-05-04T04:30:09.868Z,48.20
2023-05-04T04:32:37.559Z,48.30
2023-05-04T04:35:05.266Z,48.30
2023-05-04T04:47:21.472Z,48.60
2023-05-04T04:52:17.245Z,48.70
2023-05-04T05:02:06.993Z,48.80
2023-05-04T05:11:56.538Z,48.70
2023-05-04T05:14:23.359Z,48.80
2023-05-04T05:19:17.519Z,48.80
2023-05-04T05:34:01.449Z,48.70
2023-05-04T05:38:55.754Z,48.80
2023-05-04T05:43:50.285Z,48.90
2023-05-04T05:48:45.512Z,49.00
2023-05-04T06:05:56.564Z,49.20
2023-05-04T06:10:51.628Z,49.20
2023-05-04T06:15:55.697Z,49.20
2023-05-04T06:18:22.795Z,49.10
2023-05-04T06:26:07.827Z,49.00
2023-05-04T06:32:41.929Z,48.90
2023-05-04T06:37:36.791Z,49.10
2023-05-04T06:57:16.503Z,48.70
2023-05-04T06:59:43.357Z,48.80
2023-05-04T07:09:31.952Z,48.70
2023-05-04T07:14:25.959Z,48.60
2023-05-04T07:19:20.148Z,48.40
2023-05-04T07:24:14.496Z,48.60
2023-05-04T07:34:05.382Z,49.00
2023-05-04T07:36:35.290Z,49.10
2023-05-04T07:39:02.640Z,49.00
2023-05-04T07:41:29.467Z,49.10
2023-05-04T07:48:51.036Z,49.40
2023-05-04T07:51:18.627Z,49.40
2023-05-04T07:53:45.691Z,49.60
2023-05-04T07:56:13.396Z,49.60
2023-05-04T07:58:40.629Z,49.60
2023-05-04T08:01:07.573Z,49.80
2023-05-04T08:06:02.022Z,49.80
2023-05-04T08:08:28.953Z,49.90
2023-05-04T08:11:02.022Z,49.90
2023-05-04T08:13:35.628Z,49.90
2023-05-04T08:18:29.650Z,50.20
2023-05-04T08:20:56.621Z,50.20
2023-05-04T08:23:23.422Z,50.30
2023-05-04T08:25:50.437Z,50.20
2023-05-04T08:28:17.505Z,50.20
2023-05-04T08:30:44.432Z,50.20
2023-05-04T08:33:11.381Z,50.20
2023-05-04T08:35:38.336Z,50.10
2023-05-04T08:38:05.426Z,50.20
2023-05-04T08:40:33.689Z,49.40
2023-05-04T08:43:00.590Z,50.10
2023-05-04T08:45:28.545Z,50.10
2023-05-04T08:47:55.945Z,50.10
2023-05-04T08:50:22.890Z,50.00
2023-05-04T08:52:50.328Z,50.10
2023-05-04T08:59:10.229Z,50.30
2023-05-04T09:05:51.049Z,49.10
2023-05-04T09:08:20.482Z,49.70
2023-05-04T09:10:47.355Z,49.10
2023-05-04T09:13:14.750Z,49.60
2023-05-04T09:15:42.356Z,49.80
2023-05-04T09:18:10.169Z,49.60
2023-05-04T09:20:47.947Z,49.60
2023-05-04T09:23:16.235Z,49.00
2023-05-04T09:25:50.789Z,49.40
2023-05-04T09:28:18.758Z,49.50
2023-05-04T09:30:48.126Z,48.70
2023-05-04T09:33:27.336Z,49.30
2023-05-04T09:35:54.434Z,49.20
2023-05-04T09:38:32.670Z,49.20
2023-05-04T09:40:59.491Z,49.10
2023-05-04T09:43:36.891Z,49.20
2023-05-04T09:46:03.814Z,49.20
2023-05-04T09:48:30.886Z,49.10
2023-05-04T09:51:03.356Z,49.10
2023-05-04T09:53:31.720Z,48.60
2023-05-04T09:56:28.609Z,48.70
2023-05-04T09:58:59.768Z,48.50
2023-05-04T10:01:30.205Z,47.70
2023-05-04T10:03:57.560Z,48.10
2023-05-04T10:06:24.858Z,48.30
2023-05-04T10:08:52.208Z,48.20
2023-05-04T10:11:20.600Z,48.30
2023-05-04T10:13:49.514Z,48.10
2023-05-04T10:16:23.685Z,48.00
2023-05-04T10:19:18.000Z,47.90
2023-05-04T10:21:53.975Z,47.80
2023-05-04T10:24:57.166Z,47.60
2023-05-04T10:28:09.853Z,47.70
2023-05-04T10:30:36.985Z,48.20
2023-05-04T10:33:04.471Z,47.80
2023-05-04T10:35:32.364Z,47.60
2023-05-04T10:37:59.354Z,47.30
2023-05-04T10:40:36.521Z,47.30
2023-05-04T10:43:03.824Z,47.10
2023-05-04T10:45:37.214Z,47.50
2023-05-04T10:48:05.148Z,47.20
2023-05-04T10:50:49.257Z,47.30
2023-05-04T10:53:17.886Z,47.40
2023-05-04T10:55:48.521Z,47.30
2023-05-04T10:58:21.707Z,47.00
2023-05-04T11:00:51.690Z,47.00
2023-05-04T11:03:19.280Z,46.30
2023-05-04T11:05:50.727Z,45.90
2023-05-04T11:08:22.572Z,45.60
2023-05-04T11:11:03.519Z,45.50
2023-05-04T11:13:33.763Z,45.50
2023-05-04T11:16:00.917Z,46.00
2023-05-04T11:18:35.621Z,45.10
2023-05-04T11:21:03.270Z,45.00
2023-05-04T11:23:30.410Z,45.40
2023-05-04T11:25:57.261Z,44.80
2023-05-04T11:28:37.323Z,45.40
2023-05-04T11:31:13.962Z,44.70
2023-05-04T11:33:54.919Z,45.10
2023-05-04T11:36:22.823Z,44.30
2023-05-04T11:38:50.197Z,44.10
2023-05-04T11:41:17.143Z,44.00
2023-05-04T11:43:45.620Z,44.50
2023-05-04T11:46:14.015Z,43.50
2023-05-04T11:48:41.249Z,44.00
2023-05-04T11:51:08.090Z,44.00
2023-05-04T11:53:38.941Z,44.10
2023-05-04T11:56:08.791Z,43.80
2023-05-04T11:58:36.083Z,43.60
2023-05-04T12:01:04.175Z,43.40
2023-05-04T12:03:48.597Z,42.90
2023-05-04T12:06:18.685Z,41.80
2023-05-04T12:08:45.643Z,41.00
2023-05-04T12:11:25.273Z,40.40
2023-05-04T12:14:10.145Z,39.60
2023-05-04T12:16:38.282Z,39.20
2023-05-04T12:19:08.769Z,39.50
2023-05-04T12:21:36.203Z,38.50
2023-05-04T12:24:03.955Z,38.50
2023-05-04T12:26:31.245Z,39.10
2023-05-04T12:28:58.039Z,38.40
2023-05-04T12:31:25.510Z,38.50
2023-05-04T12:33:52.679Z,38.40
2023-05-04T12:36:19.583Z,38.30
2023-05-04T12:38:46.606Z,37.90
2023-05-04T12:41:13.775Z,37.60
2023-05-04T12:43:40.827Z,37.80
2023-05-04T12:46:07.879Z,36.80
2023-05-04T12:48:34.954Z,36.30
2023-05-04T12:51:04.224Z,36.80
2023-05-04T12:53:32.193Z,36.70
2023-05-04T12:56:00.494Z,36.10
2023-05-04T12:58:27.931Z,35.80
2023-05-04T13:00:55.550Z,35.70
2023-05-04T13:03:22.541Z,35.60
2023-05-04T13:05:49.949Z,35.40
2023-05-04T13:08:18.343Z,35.40
2023-05-04T13:10:46.309Z,35.70
2023-05-04T13:13:15.452Z,36.00
2023-05-04T13:15:42.881Z,36.00
2023-05-04T13:18:09.803Z,35.70
2023-05-04T13:20:36.564Z,35.80
2023-05-04T13:23:03.384Z,35.50
2023-05-04T13:25:30.181Z,35.30
2023-05-04T13:27:58.788Z,34.80
2023-05-04T13:30:25.832Z,34.20
2023-05-04T13:32:52.988Z,33.20
2023-05-04T13:35:20.049Z,32.90
2023-05-04T13:37:47.013Z,32.60
2023-05-04T13:40:14.657Z,31.20
2023-05-04T13:42:44.023Z,30.20
2023-05-04T13:45:11.233Z,29.80
2023-05-04T13:47:38.220Z,29.60
2023-05-04T13:50:05.824Z,28.90
2023-05-04T13:52:33.068Z,28.10
2023-05-04T13:55:00.358Z,27.50
2023-05-04T13:57:27.897Z,26.70
2023-05-04T14:00:06.290Z,26.20
2023-05-04T14:02:40.064Z,26.10
2023-05-04T14:05:07.979Z,26.00
2023-05-04T14:07:35.341Z,25.50
2023-05-04T14:10:02.503Z,25.20
2023-05-04T14:12:29.477Z,25.30
2023-05-04T14:14:58.216Z,25.30
2023-05-04T14:17:26.051Z,25.10
2023-05-04T14:19:53.335Z,24.90
2023-05-04T14:22:20.487Z,24.50
2023-05-04T14:24:47.340Z,24.30
2023-05-04T14:27:14.241Z,23.60
2023-05-04T14:29:41.154Z,23.20
2023-05-04T14:32:08.121Z,22.60
2023-05-04T14:34:36.109Z,22.70
2023-05-04T14:37:02.919Z,22.50
2023-05-04T14:39:29.778Z,22.20
2023-05-04T14:41:57.979Z,22.30
2023-05-04T14:44:26.073Z,22.20
2023-05-04T14:46:53.410Z,21.90
2023-05-04T14:49:34.869Z,21.90
2023-05-04T14:52:04.039Z,21.70
2023-05-04T14:54:30.886Z,21.50
2023-05-04T14:56:59.088Z,21.40
2023-05-04T14:59:26.273Z,21.10
2023-05-04T15:01:54.769Z,21.20
2023-05-04T15:04:21.991Z,20.90
2023-05-04T15:06:49.535Z,20.60
2023-05-04T15:09:16.557Z,20.60
2023-05-04T15:11:43.436Z,20.80
2023-05-04T15:14:10.322Z,20.40
2023-05-04T15:16:37.201Z,20.30
2023-05-04T15:19:04.188Z,20.30
2023-05-04T15:21:31.634Z,20.20
2023-05-04T15:23:58.676Z,20.60
2023-05-04T15:26:25.871Z,20.00
2023-05-04T15:28:54.086Z,20.70
2023-05-04T15:31:21.671Z,20.60
2023-05-04T15:33:48.929Z,20.60
2023-05-04T15:36:15.706Z,19.50
2023-05-04T15:38:43.718Z,20.70
2023-05-04T15:41:10.816Z,20.50
2023-05-04T15:43:37.762Z,20.40
2023-05-04T15:46:04.697Z,20.50
2023-05-04T15:48:31.578Z,20.50
2023-05-04T15:50:58.364Z,20.60
2023-05-04T15:53:25.248Z,21.00
2023-05-04T15:55:52.368Z,20.20
2023-05-04T15:58:19.217Z,20.30
2023-05-04T16:00:46.124Z,20.20
2023-05-04T16:03:13.058Z,20.30
2023-05-04T16:05:40.153Z,20.50
2023-05-04T16:08:06.964Z,20.50
2023-05-04T16:10:34.336Z,20.90
2023-05-04T16:13:04.172Z,20.60
2023-05-04T16:15:31.384Z,20.80
2023-05-04T16:17:58.512Z,21.00
2023-05-04T16:20:26.902Z,21.10
2023-05-04T16:22:53.933Z,21.20
2023-05-04T16:25:20.829Z,21.10
2023-05-04T16:27:47.846Z,21.00
2023-05-04T16:30:15.643Z,20.90
2023-05-04T16:32:42.561Z,21.30
2023-05-04T16:35:09.800Z,20.90
2023-05-04T16:37:37.910Z,20.80
2023-05-04T16:40:15.469Z,20.80
2023-05-04T16:42:42.924Z,20.00
2023-05-04T16:45:13.749Z,20.30
2023-05-04T16:47:44.420Z,20.20
2023-05-04T16:50:12.976Z,19.50
2023-05-04T16:52:40.000Z,19.80
2023-05-04T16:55:10.606Z,19.70
2023-05-04T16:57:38.361Z,19.40
2023-05-04T17:00:06.844Z,19.90
2023-05-04T17:02:34.243Z,19.20
2023-05-04T17:05:01.396Z,19.20
2023-05-04T17:07:28.655Z,19.00
2023-05-04T17:09:55.515Z,18.80
2023-05-04T17:12:23.411Z,18.90
2023-05-04T17:14:50.376Z,18.90
2023-05-04T17:17:17.183Z,19.10
2023-05-04T17:19:43.993Z,19.00
2023-05-04T17:22:11.388Z,19.30
2023-05-04T17:24:38.172Z,19.80
2023-05-04T17:27:06.048Z,19.50
2023-05-04T17:29:32.866Z,19.40
2023-05-04T17:31:59.695Z,19.50
2023-05-04T17:34:26.592Z,19.50
2023-05-04T17:36:54.287Z,19.60
2023-05-04T17:39:21.118Z,19.50
2023-05-04T17:41:48.920Z,17.60
2023-05-04T17:44:16.555Z,19.60
2023-05-04T17:46:43.895Z,19.70
2023-05-04T17:49:11.024Z,19.80
2023-05-04T17:51:39.506Z,20.00
2023-05-04T17:54:06.469Z,20.20
2023-05-04T17:56:33.423Z,20.20
2023-05-04T17:59:00.400Z,20.20
2023-05-04T18:01:27.454Z,20.30
2023-05-04T18:03:54.514Z,20.30
2023-05-04T18:06:21.441Z,20.70
2023-05-04T18:08:48.289Z,20.90
2023-05-04T18:11:15.212Z,20.80
2023-05-04T18:13:42.007Z,21.00
2023-05-04T18:16:08.981Z,21.10
2023-05-04T18:18:35.991Z,21.20
2023-05-04T18:21:03.000Z,21.50
2023-05-04T18:23:30.130Z,21.50
2023-05-04T18:25:57.008Z,21.60
2023-05-04T18:28:23.849Z,22.10
2023-05-04T18:30:50.821Z,22.40
2023-05-04T18:33:17.689Z,22.80
2023-05-04T18:35:44.460Z,23.20
2023-05-04T18:38:11.327Z,23.40
2023-05-04T18:40:38.137Z,23.70
2023-05-04T18:43:05.192Z,24.00
2023-05-04T18:45:32.133Z,24.30
2023-05-04T18:47:59.107Z,24.70
2023-05-04T18:50:26.022Z,24.90
2023-05-04T18:52:54.107Z,25.20
2023-05-04T18:55:21.196Z,25.30
2023-05-04T18:57:48.039Z,25.50
2023-05-04T19:00:15.224Z,25.90
2023-05-04T19:02:42.015Z,26.20
2023-05-04T19:05:10.435Z,26.40
2023-05-04T19:07:38.536Z,26.70
2023-05-04T19:10:06.667Z,26.50
2023-05-04T19:12:33.641Z,26.60
2023-05-04T19:15:00.508Z,27.00
2023-05-04T19:17:27.352Z,27.50
2023-05-04T19:19:54.187Z,27.40
2023-05-04T19:22:21.007Z,27.80
2023-05-04T19:24:51.460Z,27.90
2023-05-04T19:27:18.302Z,28.10
2023-05-04T19:29:45.119Z,28.10
2023-05-04T19:32:22.766Z,28.80
2023-05-04T19:34:51.831Z,28.80
2023-05-04T19:37:19.008Z,29.20
2023-05-04T19:39:46.136Z,29.20
2023-05-04T19:42:12.931Z,29.40
2023-05-04T19:44:39.690Z,29.50
2023-05-04T19:47:06.832Z,29.60
2023-05-04T19:49:33.705Z,29.70
2023-05-04T19:52:00.833Z,29.90
2023-05-04T19:54:27.607Z,29.90
2023-05-04T19:56:54.445Z,30.10
2023-05-04T19:59:21.225Z,30.10
2023-05-04T20:01:48.105Z,30.20
2023-05-04T20:04:16.065Z,30.30
2023-05-04T20:06:43.144Z,30.40
2023-05-04T20:09:10.474Z,30.40
2023-05-04T20:11:38.286Z,30.40
2023-05-04T20:14:05.300Z,30.40
2023-05-04T20:16:32.288Z,30.60
2023-05-04T20:19:00.647Z,30.70
2023-05-04T20:21:29.886Z,30.80
2023-05-04T20:23:56.789Z,30.80
2023-05-04T20:26:23.570Z,30.90
2023-05-04T20:28:50.478Z,31.00
2023-05-04T20:31:17.646Z,31.10
2023-05-04T20:33:44.449Z,30.90
2023-05-04T20:36:12.531Z,30.40
2023-05-04T20:38:39.445Z,31.00
2023-05-04T20:41:09.780Z,31.00
2023-05-04T20:43:36.629Z,31.40
2023-05-04T20:46:04.413Z,31.40
2023-05-04T20:48:31.812Z,31.40
2023-05-04T20:51:10.473Z,31.40
2023-05-04T20:53:41.143Z,31.60
2023-05-04T20:56:08.061Z,31.70
2023-05-04T20:58:34.901Z,31.90
2023-05-04T21:01:05.752Z,32.10
2023-05-04T21:03:33.269Z,32.20
2023-05-04T21:06:01.872Z,32.10
2023-05-04T21:08:29.151Z,32.10
2023-05-04T21:10:55.979Z,32.00
2023-05-04T21:13:22.854Z,32.20
2023-05-04T21:15:49.684Z,32.20
2023-05-04T21:18:18.430Z,32.20
2023-05-04T21:20:45.649Z,32.30
2023-05-04T21:23:12.524Z,32.30
2023-05-04T21:25:39.328Z,32.60
2023-05-04T21:28:06.369Z,33.10
2023-05-04T21:30:33.166Z,33.00
2023-05-04T21:33:00.755Z,33.80
2023-05-04T21:35:31.376Z,33.80
2023-05-04T21:37:59.318Z,34.10
2023-05-04T21:40:27.550Z,34.20
2023-05-04T21:42:54.404Z,34.20
2023-05-04T21:45:21.331Z,33.80
2023-05-04T21:47:48.543Z,34.60
2023-05-04T21:50:16.227Z,34.40
2023-05-04T21:52:43.052Z,35.10
2023-05-04T21:55:10.137Z,35.20
2023-05-04T21:57:37.209Z,35.30
2023-05-04T22:00:11.935Z,35.30
2023-05-04T22:02:39.356Z,35.50
2023-05-04T22:05:06.507Z,35.70
2023-05-04T22:07:35.317Z,36.00
2023-05-04T22:10:04.613Z,36.20
2023-05-04T22:12:31.528Z,36.20
2023-05-04T22:14:58.382Z,36.00
2023-05-04T22:17:25.236Z,36.60
2023-05-04T22:19:52.127Z,36.60
2023-05-04T22:22:18.921Z,37.00
2023-05-04T22:24:45.706Z,37.20
2023-05-04T22:27:12.488Z,37.30
2023-05-04T22:29:39.395Z,37.50
2023-05-04T22:32:06.195Z,37.40
2023-05-04T22:34:33.112Z,38.00
2023-05-04T22:36:59.883Z,37.60
2023-05-04T22:39:26.823Z,37.80
2023-05-04T22:41:53.664Z,37.80
2023-05-04T22:44:20.551Z,38.20
2023-05-04T22:46:49.331Z,38.30
2023-05-04T22:49:17.645Z,38.60
2023-05-04T22:51:44.457Z,38.80
2023-05-04T22:54:11.253Z,38.70
2023-05-04T22:56:38.084Z,38.80
2023-05-04T22:59:06.282Z,39.20
2023-05-04T23:01:33.187Z,39.20
2023-05-04T23:03:59.963Z,39.40
2023-05-04T23:06:28.432Z,39.80
2023-05-04T23:08:55.252Z,39.70
2023-05-04T23:11:22.137Z,39.90
2023-05-04T23:13:49.282Z,40.00
2023-05-04T23:16:16.262Z,40.00
2023-05-04T23:18:43.138Z,40.10
2023-05-04T23:21:09.978Z,40.30
2023-05-04T23:23:37.102Z,40.30
2023-05-04T23:26:04.028Z,40.50
2023-05-04T23:28:30.885Z,40.50
2023-05-04T23:30:57.675Z,40.70
2023-05-04T23:35:55.652Z,41.00
2023-05-04T23:38:22.904Z,41.30
2023-05-04T23:40:50.082Z,41.20
2023-05-04T23:43:17.009Z,41.30
2023-05-04T23:45:43.921Z,41.40
2023-05-04T23:48:10.967Z,41.60
2023-05-04T23:50:37.741Z,41.80
2023-05-04T23:53:04.603Z,41.80
2023-05-04T23:55:31.436Z,41.80
2023-05-04T23:57:58.499Z,41.90
